createdAt,value
2017-10-11T00:02:04.197Z,99.90
2017-10-11T00:04:31.955Z,99.90
2017-10-11T00:06:59.722Z,99.90
2017-10-11T00:09:27.487Z,99.90
2017-10-11T00:11:55.351Z,99.80
2017-10-11T00:14:23.119Z,99.60
2017-10-11T00:16:50.986Z,99.50
2017-10-11T00:19:19.037Z,99.50
2017-10-11T00:21:47.294Z,99.60
2017-10-11T00:24:15.089Z,99.60
2017-10-11T00:26:42.969Z,99.70
2017-10-11T00:29:10.719Z,99.80
2017-10-11T00:31:38.598Z,99.90
2017-10-11T00:34:06.340Z,99.80
2017-10-11T00:36:34.222Z,99.90
2017-10-11T00:39:02.169Z,99.40
2017-10-11T00:41:29.924Z,98.80
2017-10-11T00:43:58.587Z,98.20
2017-10-11T00:46:26.505Z,98.20
2017-10-11T00:48:54.376Z,97.50
2017-10-11T00:51:22.324Z,98.20
2017-10-11T00:53:50.834Z,97.50
2017-10-11T00:56:18.695Z,98.20
2017-10-11T00:58:46.656Z,98.40
2017-10-11T01:01:14.520Z,98.30
2017-10-11T01:03:42.253Z,98.60
2017-10-11T01:06:10.055Z,98.80
2017-10-11T01:08:37.853Z,98.90
2017-10-11T01:11:05.683Z,99.20
2017-10-11T01:13:33.541Z,99.20
2017-10-11T01:16:01.424Z,99.10
2017-10-11T01:18:29.311Z,99.00
2017-10-11T01:20:57.966Z,98.80
2017-10-11T01:23:26.460Z,98.80
2017-10-11T01:25:55.170Z,98.30
2017-10-11T01:28:23.944Z,98.40
2017-10-11T01:30:51.764Z,98.40
2017-10-11T01:33:19.662Z,98.50
2017-10-11T01:35:47.614Z,98.60
2017-10-11T01:38:15.494Z,98.70
2017-10-11T01:40:43.455Z,98.80
2017-10-11T01:43:11.324Z,98.80
2017-10-11T01:45:39.144Z,98.70
2017-10-11T01:48:07.056Z,99.00
2017-10-11T01:50:34.923Z,99.20
2017-10-11T01:53:02.732Z,99.30
2017-10-11T01:55:31.343Z,99.30
2017-10-11T01:57:59.241Z,99.30
2017-10-11T02:00:27.107Z,99.10
2017-10-11T02:02:54.880Z,98.70
2017-10-11T02:05:22.940Z,98.40
2017-10-11T02:07:50.691Z,98.30
2017-10-11T02:10:18.451Z,98.30
2017-10-11T02:12:46.303Z,98.10
2017-10-11T02:15:14.058Z,98.10
2017-10-11T02:17:41.945Z,98.20
2017-10-11T02:20:09.734Z,98.20
2017-10-11T02:22:37.703Z,98.50
2017-10-11T02:25:05.565Z,98.70
2017-10-11T02:27:33.776Z,98.60
2017-10-11T02:30:02.310Z,98.60
2017-10-11T02:32:30.198Z,98.50
2017-10-11T02:34:58.155Z,98.40
2017-10-11T02:37:26.019Z,98.20
2017-10-11T02:39:53.791Z,98.20
2017-10-11T02:42:21.511Z,98.10
2017-10-11T02:44:49.311Z,98.10
2017-10-11T02:47:17.191Z,98.30
2017-10-11T02:49:45.049Z,98.10
2017-10-11T02:52:12.999Z,98.20
2017-10-11T02:54:40.773Z,98.10
2017-10-11T02:57:08.651Z,98.00
2017-10-11T02:59:37.248Z,98.00
2017-10-11T03:02:05.182Z,97.80
2017-10-11T03:04:33.169Z,97.90
2017-10-11T03:07:00.933Z,97.70
2017-10-11T03:09:28.668Z,97.60
2017-10-11T03:11:56.404Z,97.50
2017-10-11T03:14:24.324Z,97.60
2017-10-11T03:16:52.083Z,97.70
2017-10-11T03:19:19.939Z,97.70
2017-10-11T03:21:47.651Z,97.70
2017-10-11T03:24:16.204Z,98.10
2017-10-11T03:26:44.175Z,98.00
2017-10-11T03:29:11.934Z,98.10
2017-10-11T03:31:39.701Z,98.40
2017-10-11T03:34:07.464Z,98.50
2017-10-11T03:36:35.333Z,98.60
2017-10-11T03:39:03.205Z,98.90
2017-10-11T03:41:31.072Z,99.10
2017-10-11T03:43:58.929Z,99.20
2017-10-11T03:46:26.646Z,99.20
2017-10-11T03:48:54.390Z,99.50
2017-10-11T03:51:23.039Z,99.80
2017-10-11T03:53:50.812Z,99.80
2017-10-11T03:56:18.573Z,99.80
2017-10-11T03:58:46.331Z,99.60
2017-10-11T04:01:14.092Z,99.90
2017-10-11T04:03:41.862Z,99.90
2017-10-11T04:06:09.726Z,99.90
2017-10-11T04:08:37.588Z,99.90
2017-10-11T04:11:05.456Z,99.90
2017-10-11T04:13:33.575Z,99.90
2017-10-11T04:16:01.393Z,99.90
2017-10-11T04:18:29.568Z,99.90
2017-10-11T04:20:57.384Z,99.90
2017-10-11T04:23:25.264Z,99.90
2017-10-11T04:25:53.111Z,99.90
2017-10-11T04:28:21.768Z,99.90
2017-10-11T04:30:49.704Z,99.90
2017-10-11T04:33:17.537Z,99.90
2017-10-11T04:35:45.346Z,99.90
2017-10-11T04:38:13.255Z,99.90
2017-10-11T04:40:42.004Z,99.90
2017-10-11T04:43:09.798Z,99.90
2017-10-11T04:45:38.422Z,99.90
2017-10-11T04:48:06.202Z,99.90
2017-10-11T04:50:34.079Z,99.90
2017-10-11T04:53:01.960Z,99.90
2017-10-11T04:55:29.821Z,99.90
2017-10-11T04:57:57.680Z,99.90
2017-10-11T05:00:25.544Z,99.90
2017-10-11T05:02:53.268Z,99.90
2017-10-11T05:05:21.012Z,99.90
2017-10-11T05:07:49.865Z,99.50
2017-10-11T05:10:17.812Z,99.40
2017-10-11T05:12:45.890Z,99.50
2017-10-11T05:15:13.781Z,98.90
2017-10-11T05:17:41.830Z,98.80
2017-10-11T05:20:09.714Z,99.10
2017-10-11T05:22:37.576Z,99.10
2017-10-11T05:25:05.318Z,99.30
2017-10-11T05:27:33.104Z,99.20
2017-10-11T05:30:01.157Z,99.10
2017-10-11T05:32:28.931Z,99.10
2017-10-11T05:34:56.815Z,99.10
2017-10-11T05:37:24.579Z,99.20
2017-10-11T05:39:52.434Z,99.00
2017-10-11T05:42:20.287Z,99.10
2017-10-11T05:44:48.064Z,99.10
2017-10-11T05:47:15.808Z,99.00
2017-10-11T05:49:43.528Z,98.50
2017-10-11T05:52:12.066Z,98.60
2017-10-11T05:54:39.799Z,98.60
2017-10-11T05:57:07.604Z,98.20
2017-10-11T05:59:35.350Z,97.80
2017-10-11T06:02:03.232Z,97.40
2017-10-11T06:04:30.997Z,97.40
2017-10-11T06:06:58.869Z,97.40
2017-10-11T06:09:26.848Z,97.40
2017-10-11T06:11:54.590Z,97.00
2017-10-11T06:14:22.463Z,96.80
2017-10-11T06:16:50.327Z,96.80
2017-10-11T06:19:18.177Z,96.60
2017-10-11T06:21:45.958Z,96.80
2017-10-11T06:24:13.722Z,96.90
2017-10-11T06:26:41.461Z,96.90
2017-10-11T06:29:09.354Z,96.90
2017-10-11T06:31:37.084Z,96.90
2017-10-11T06:34:04.803Z,97.10
2017-10-11T06:36:32.629Z,97.00
2017-10-11T06:39:00.408Z,97.30
2017-10-11T06:41:28.251Z,97.10
2017-10-11T06:43:56.041Z,97.10
2017-10-11T06:46:23.794Z,96.60
2017-10-11T06:48:51.644Z,96.30
2017-10-11T06:51:19.434Z,96.00
2017-10-11T06:53:47.220Z,95.30
2017-10-11T06:56:15.880Z,94.90
2017-10-11T06:58:43.748Z,94.80
2017-10-11T07:01:11.512Z,93.90
2017-10-11T07:03:39.366Z,93.00
2017-10-11T07:06:07.132Z,92.10
2017-10-11T07:08:35.097Z,91.20
2017-10-11T07:11:02.962Z,90.80
2017-10-11T07:13:30.854Z,90.10
2017-10-11T07:15:58.589Z,90.40
2017-10-11T07:18:26.587Z,90.00
2017-10-11T07:20:54.342Z,90.60
2017-10-11T07:23:22.287Z,91.10
2017-10-11T07:25:50.170Z,91.10
2017-10-11T07:28:18.039Z,90.90
2017-10-11T07:30:45.996Z,90.80
2017-10-11T07:33:13.727Z,89.70
2017-10-11T07:35:41.538Z,86.50
2017-10-11T07:38:09.303Z,87.70
2017-10-11T07:40:37.157Z,84.80
2017-10-11T07:43:04.941Z,82.20
2017-10-11T07:45:32.907Z,82.70
2017-10-11T07:48:00.747Z,82.80
2017-10-11T07:50:28.524Z,82.50
2017-10-11T07:52:56.367Z,81.80
2017-10-11T07:55:25.082Z,80.20
2017-10-11T07:57:52.796Z,80.30
2017-10-11T08:00:20.705Z,80.10
2017-10-11T08:02:48.596Z,79.90
2017-10-11T08:05:16.372Z,75.40
2017-10-11T08:07:44.926Z,73.90
2017-10-11T08:10:12.897Z,74.00
2017-10-11T08:12:40.651Z,75.20
2017-10-11T08:15:08.528Z,78.20
2017-10-11T08:17:36.267Z,75.40
2017-10-11T08:20:04.043Z,76.50
2017-10-11T08:22:31.908Z,78.60
2017-10-11T08:24:59.791Z,77.00
2017-10-11T08:27:27.672Z,79.80
2017-10-11T08:29:55.529Z,77.80
2017-10-11T08:32:23.349Z,80.30
2017-10-11T08:34:51.697Z,83.60
2017-10-11T08:37:20.209Z,82.80
2017-10-11T08:40:03.511Z,83.00
2017-10-11T08:42:32.117Z,80.60
2017-10-11T08:44:59.929Z,80.50
2017-10-11T08:47:27.864Z,81.00
2017-10-11T08:49:55.673Z,80.00
2017-10-11T08:52:23.421Z,82.00
2017-10-11T08:54:51.379Z,78.90
2017-10-11T08:57:19.248Z,80.80
2017-10-11T08:59:47.127Z,82.00
2017-10-11T09:02:14.908Z,81.00
2017-10-11T09:04:43.490Z,80.70
2017-10-11T09:07:11.345Z,81.10
2017-10-11T09:09:39.061Z,78.70
2017-10-11T09:12:06.883Z,80.10
2017-10-11T09:14:35.333Z,79.10
2017-10-11T09:17:03.347Z,77.60
2017-10-11T09:19:31.376Z,77.50
2017-10-11T09:21:59.113Z,78.40
2017-10-11T09:24:26.916Z,79.20
2017-10-11T09:26:54.874Z,75.20
2017-10-11T09:29:22.615Z,76.50
2017-10-11T09:31:50.502Z,76.00
2017-10-11T09:34:18.293Z,75.60
2017-10-11T09:36:46.043Z,75.40
2017-10-11T09:39:13.913Z,76.70
2017-10-11T09:41:41.783Z,79.30
2017-10-11T09:44:09.768Z,74.50
2017-10-11T09:46:37.535Z,75.40
2017-10-11T09:49:05.401Z,75.00
2017-10-11T09:51:33.308Z,74.80
2017-10-11T09:54:01.111Z,74.80
2017-10-11T09:56:28.887Z,74.90
2017-10-11T09:58:56.627Z,77.40
2017-10-11T10:01:24.397Z,75.00
2017-10-11T10:03:52.247Z,74.70
2017-10-11T10:06:20.124Z,74.40
2017-10-11T10:08:48.004Z,76.40
2017-10-11T10:11:15.787Z,76.30
2017-10-11T10:13:43.636Z,73.90
2017-10-11T10:16:11.513Z,77.00
2017-10-11T10:18:39.263Z,75.20
2017-10-11T10:21:07.119Z,76.10
2017-10-11T10:23:34.888Z,77.90
2017-10-11T10:26:02.764Z,76.40
2017-10-11T10:28:30.481Z,75.60
2017-10-11T10:30:58.198Z,75.80
2017-10-11T10:33:26.038Z,71.70
2017-10-11T10:35:53.929Z,75.10
2017-10-11T10:38:22.507Z,70.50
2017-10-11T10:40:50.358Z,70.90
2017-10-11T10:43:18.122Z,72.40
2017-10-11T10:45:45.899Z,71.00
2017-10-11T10:48:13.772Z,73.60
2017-10-11T10:50:41.539Z,74.60
2017-10-11T10:53:09.394Z,77.90
2017-10-11T10:55:37.291Z,75.30
2017-10-11T10:58:05.013Z,82.40
2017-10-11T11:00:32.740Z,82.70
2017-10-11T11:03:00.863Z,84.00
2017-10-11T11:05:28.639Z,85.00
2017-10-11T11:07:56.393Z,86.00
2017-10-11T11:10:24.353Z,85.80
2017-10-11T11:12:52.237Z,87.90
2017-10-11T11:15:21.117Z,87.20
2017-10-11T11:17:48.889Z,85.70
2017-10-11T11:20:16.856Z,85.50
2017-10-11T11:22:44.619Z,85.50
2017-10-11T11:25:12.539Z,85.50
2017-10-11T11:27:41.050Z,78.50
2017-10-11T11:30:09.291Z,78.60
2017-10-11T11:32:37.064Z,84.00
2017-10-11T11:35:04.816Z,82.80
2017-10-11T11:37:33.446Z,72.80
2017-10-11T11:40:01.219Z,72.50
2017-10-11T11:42:29.172Z,77.30
2017-10-11T11:44:57.260Z,75.40
2017-10-11T11:47:25.013Z,74.30
2017-10-11T11:49:52.800Z,71.60
2017-10-11T11:52:20.669Z,73.90
2017-10-11T11:54:48.415Z,71.60
2017-10-11T11:57:16.164Z,73.30
2017-10-11T11:59:44.054Z,73.20
2017-10-11T12:02:11.810Z,73.70
2017-10-11T12:04:40.094Z,74.10
2017-10-11T12:07:07.963Z,74.50
2017-10-11T12:09:35.704Z,75.60
2017-10-11T12:12:03.587Z,74.90
2017-10-11T12:14:31.437Z,74.40
2017-10-11T12:16:59.307Z,75.90
2017-10-11T12:19:28.114Z,75.20
2017-10-11T12:21:55.944Z,73.30
2017-10-11T12:24:23.845Z,73.60
2017-10-11T12:26:51.820Z,74.80
2017-10-11T12:29:20.397Z,72.80
2017-10-11T12:31:48.449Z,71.60
2017-10-11T12:34:16.239Z,74.70
2017-10-11T12:36:44.298Z,72.10
2017-10-11T12:39:12.186Z,72.20
2017-10-11T12:41:40.443Z,72.40
2017-10-11T12:44:08.853Z,70.90
2017-10-11T12:46:37.402Z,71.30
2017-10-11T12:49:05.264Z,71.20
2017-10-11T12:51:33.046Z,68.70
2017-10-11T12:54:01.008Z,71.30
2017-10-11T12:56:28.757Z,69.40
2017-10-11T12:58:56.489Z,70.60
2017-10-11T13:01:24.249Z,71.00
2017-10-11T13:03:52.077Z,69.00
2017-10-11T13:06:19.925Z,68.50
2017-10-11T13:08:48.087Z,66.20
2017-10-11T13:11:15.963Z,69.30
2017-10-11T13:13:43.728Z,68.30
2017-10-11T13:16:11.544Z,67.60
2017-10-11T13:18:39.448Z,66.00
2017-10-11T13:21:07.519Z,67.30
2017-10-11T13:23:35.284Z,64.60
2017-10-11T13:26:03.160Z,63.10
2017-10-11T13:28:30.918Z,63.00
2017-10-11T13:30:58.799Z,59.70
2017-10-11T13:33:26.850Z,60.90
2017-10-11T13:35:54.822Z,60.10
2017-10-11T13:38:22.704Z,59.90
2017-10-11T13:40:50.593Z,61.70
2017-10-11T13:43:19.092Z,58.80
2017-10-11T13:45:47.595Z,60.30
2017-10-11T13:48:15.352Z,60.30
2017-10-11T13:50:43.469Z,58.70
2017-10-11T13:53:11.846Z,56.40
2017-10-11T13:55:46.574Z,57.30
2017-10-11T13:58:14.353Z,56.10
2017-10-11T14:00:42.226Z,58.70
2017-10-11T14:03:10.078Z,58.30
2017-10-11T14:05:37.947Z,60.30
2017-10-11T14:08:05.804Z,59.00
2017-10-11T14:10:33.776Z,58.70
2017-10-11T14:13:01.644Z,59.20
2017-10-11T14:15:29.698Z,58.60
2017-10-11T14:17:57.783Z,57.80
2017-10-11T14:20:25.659Z,60.00
2017-10-11T14:22:53.604Z,58.60
2017-10-11T14:25:21.575Z,56.60
2017-10-11T14:27:50.173Z,55.50
2017-10-11T14:30:18.098Z,57.00
2017-10-11T14:32:45.908Z,59.00
2017-10-11T14:35:13.881Z,57.90
2017-10-11T14:37:41.756Z,57.80
2017-10-11T14:40:09.504Z,59.40
2017-10-11T14:42:37.284Z,58.40
2017-10-11T14:45:05.352Z,56.90
2017-10-11T14:47:33.192Z,56.30
2017-10-11T14:50:01.981Z,56.60
2017-10-11T14:52:29.950Z,56.40
2017-10-11T14:54:57.839Z,55.90
2017-10-11T14:57:25.644Z,56.90
2017-10-11T14:59:54.319Z,55.80
2017-10-11T15:02:22.876Z,55.20
2017-10-11T15:04:50.716Z,55.00
2017-10-11T15:07:18.454Z,56.80
2017-10-11T15:09:46.346Z,56.20
2017-10-11T15:12:14.326Z,55.00
2017-10-11T15:14:42.164Z,55.50
2017-10-11T15:17:09.966Z,56.30
2017-10-11T15:19:37.827Z,53.80
2017-10-11T15:22:05.718Z,54.70
2017-10-11T15:24:34.296Z,55.30
2017-10-11T15:27:02.855Z,52.70
2017-10-11T15:29:30.654Z,52.80
2017-10-11T15:31:59.192Z,53.00
2017-10-11T15:34:27.070Z,53.10
2017-10-11T15:36:54.804Z,53.50
2017-10-11T15:39:22.606Z,55.70
2017-10-11T15:41:50.556Z,55.40
2017-10-11T15:44:18.541Z,54.50
2017-10-11T15:46:46.364Z,55.20
2017-10-11T15:49:14.177Z,54.50
2017-10-11T15:51:42.007Z,55.20
2017-10-11T15:54:09.736Z,57.50
2017-10-11T15:56:38.337Z,58.50
2017-10-11T15:59:06.097Z,58.50
2017-10-11T16:01:34.027Z,59.00
2017-10-11T16:04:01.894Z,59.00
2017-10-11T16:06:29.960Z,59.20
2017-10-11T16:08:57.823Z,61.90
2017-10-11T16:11:25.694Z,65.70
2017-10-11T16:13:53.435Z,69.60
2017-10-11T16:16:21.398Z,73.60
2017-10-11T16:18:49.199Z,78.20
2017-10-11T16:21:17.122Z,81.80
2017-10-11T16:23:44.924Z,86.00
2017-10-11T16:26:12.799Z,89.50
2017-10-11T16:28:40.649Z,90.20
2017-10-11T16:31:08.605Z,90.80
2017-10-11T16:33:36.592Z,91.70
2017-10-11T16:36:04.376Z,91.40
2017-10-11T16:38:32.217Z,92.20
2017-10-11T16:41:00.189Z,92.60
2017-10-11T16:43:28.948Z,93.30
2017-10-11T16:45:56.832Z,94.20
2017-10-11T16:48:24.796Z,94.10
2017-10-11T16:50:52.681Z,94.50
2017-10-11T16:53:20.544Z,95.10
2017-10-11T16:55:48.635Z,94.90
2017-10-11T16:58:16.570Z,94.50
2017-10-11T17:00:44.533Z,95.00
2017-10-11T17:03:12.522Z,96.10
2017-10-11T17:05:40.494Z,96.80
2017-10-11T17:08:08.443Z,96.70
2017-10-11T17:10:36.226Z,97.30
2017-10-11T17:13:04.299Z,97.30
2017-10-11T17:15:32.877Z,96.70
2017-10-11T17:18:00.742Z,96.80
2017-10-11T17:20:28.597Z,96.80
2017-10-11T17:22:56.486Z,96.20
2017-10-11T17:25:25.145Z,96.60
2017-10-11T17:27:53.017Z,96.60
2017-10-11T17:30:20.802Z,96.20
2017-10-11T17:32:48.718Z,96.10
2017-10-11T17:35:16.532Z,95.60
2017-10-11T17:37:45.835Z,96.00
2017-10-11T17:40:13.665Z,96.00
2017-10-11T17:42:41.542Z,96.30
2017-10-11T17:45:09.341Z,96.70
2017-10-11T17:47:37.198Z,97.00
2017-10-11T17:50:05.058Z,96.90
2017-10-11T17:52:32.934Z,97.00
2017-10-11T17:55:00.902Z,97.00
2017-10-11T17:57:29.594Z,97.40
2017-10-11T17:59:57.339Z,97.00
2017-10-11T18:02:25.190Z,97.00
2017-10-11T18:04:53.080Z,97.20
2017-10-11T18:07:20.922Z,97.30
2017-10-11T18:09:48.835Z,97.20
2017-10-11T18:12:27.628Z,96.60
2017-10-11T18:14:55.598Z,96.60
2017-10-11T18:17:23.365Z,96.60
2017-10-11T18:19:51.212Z,96.50
2017-10-11T18:22:19.003Z,96.60
2017-10-11T18:24:46.845Z,96.60
2017-10-11T18:27:14.603Z,96.10
2017-10-11T18:29:42.342Z,95.80
2017-10-11T18:32:10.073Z,95.70
2017-10-11T18:34:37.875Z,95.80
2017-10-11T18:37:05.725Z,96.00
2017-10-11T18:39:34.449Z,96.50
2017-10-11T18:42:02.420Z,96.50
2017-10-11T18:44:30.171Z,96.00
2017-10-11T18:46:58.063Z,95.70
2017-10-11T18:49:25.997Z,95.60
2017-10-11T18:51:53.782Z,95.50
2017-10-11T18:54:24.082Z,95.40
2017-10-11T18:56:53.715Z,95.40
2017-10-11T18:59:23.245Z,95.20
2017-10-11T19:01:53.571Z,95.50
2017-10-11T19:04:23.188Z,94.90
2017-10-11T19:06:52.314Z,94.90
2017-10-11T19:09:22.133Z,94.90
2017-10-11T19:11:51.740Z,94.70
2017-10-11T19:14:20.427Z,94.50
2017-10-11T19:16:48.963Z,94.80
2017-10-11T19:19:18.583Z,93.90
2017-10-11T19:21:47.817Z,93.80
2017-10-11T19:24:16.584Z,93.50
2017-10-11T19:26:46.057Z,93.50
2017-10-11T19:29:16.374Z,93.00
2017-10-11T19:31:45.278Z,93.10
2017-10-11T19:34:13.457Z,92.90
2017-10-11T19:36:43.507Z,92.90
2017-10-11T19:39:13.385Z,92.60
2017-10-11T19:41:42.901Z,92.80
2017-10-11T19:44:13.125Z,92.80
2017-10-11T19:46:43.001Z,93.30
2017-10-11T19:49:11.816Z,93.30
2017-10-11T19:51:41.877Z,93.30
2017-10-11T19:54:11.027Z,93.30
2017-10-11T19:56:40.233Z,93.30
2017-10-11T19:59:08.176Z,93.40
2017-10-11T20:01:36.128Z,93.30
2017-10-11T20:04:04.100Z,93.20
2017-10-11T20:06:32.169Z,93.20
2017-10-11T20:09:00.040Z,93.20
2017-10-11T20:11:27.929Z,93.20
2017-10-11T20:13:56.715Z,93.20
2017-10-11T20:16:25.183Z,93.20
2017-10-11T20:18:53.060Z,93.40
2017-10-11T20:21:21.005Z,93.10
2017-10-11T20:23:48.890Z,93.40
2017-10-11T20:26:16.765Z,93.40
2017-10-11T20:28:44.617Z,93.40
2017-10-11T20:31:12.367Z,93.10
2017-10-11T20:33:40.153Z,92.80
2017-10-11T20:36:08.123Z,92.90
2017-10-11T20:38:36.068Z,93.30
2017-10-11T20:41:03.864Z,93.00
2017-10-11T20:43:32.264Z,92.90
2017-10-11T20:46:00.800Z,93.20
2017-10-11T20:48:28.681Z,93.20
2017-10-11T20:50:56.441Z,93.50
2017-10-11T20:53:24.189Z,93.50
2017-10-11T20:55:52.636Z,93.60
2017-10-11T20:58:21.461Z,93.80
2017-10-11T21:00:49.218Z,93.90
2017-10-11T21:03:16.995Z,93.70
2017-10-11T21:05:44.754Z,93.70
2017-10-11T21:08:13.559Z,93.80
2017-10-11T21:10:41.345Z,94.10
2017-10-11T21:13:10.075Z,94.40
2017-10-11T21:15:37.873Z,94.80
2017-10-11T21:18:05.633Z,95.10
2017-10-11T21:20:33.397Z,95.00
2017-10-11T21:23:01.278Z,95.00
2017-10-11T21:25:29.153Z,94.80
2017-10-11T21:27:56.964Z,94.90
2017-10-11T21:30:24.757Z,95.20
2017-10-11T21:32:52.498Z,95.00
2017-10-11T21:35:20.405Z,94.90
2017-10-11T21:37:48.143Z,94.90
2017-10-11T21:40:15.894Z,94.80
2017-10-11T21:42:43.786Z,94.80
2017-10-11T21:45:11.740Z,94.50
2017-10-11T21:47:39.616Z,94.00
2017-10-11T21:50:07.403Z,93.50
2017-10-11T21:52:35.938Z,93.20
2017-10-11T21:55:03.840Z,93.20
2017-10-11T21:57:31.806Z,93.30
2017-10-11T22:00:00.329Z,93.40
2017-10-11T22:02:28.955Z,93.80
2017-10-11T22:04:56.787Z,93.80
2017-10-11T22:07:24.517Z,93.80
2017-10-11T22:09:54.015Z,94.10
2017-10-11T22:12:21.787Z,94.00
2017-10-11T22:14:49.554Z,94.20
2017-10-11T22:17:18.370Z,94.20
2017-10-11T22:19:46.278Z,94.10
2017-10-11T22:22:14.051Z,93.70
2017-10-11T22:24:41.925Z,93.40
2017-10-11T22:27:09.680Z,93.50
2017-10-11T22:29:37.562Z,93.50
2017-10-11T22:32:05.396Z,93.60
2017-10-11T22:34:33.142Z,93.60
2017-10-11T22:37:00.956Z,93.30
2017-10-11T22:39:28.700Z,93.20
2017-10-11T22:41:56.477Z,93.30
2017-10-11T22:44:24.233Z,93.10
2017-10-11T22:46:52.918Z,92.90
2017-10-11T22:49:21.168Z,92.70
2017-10-11T22:51:49.063Z,92.30
2017-10-11T22:54:16.796Z,92.50
2017-10-11T22:56:44.700Z,92.80
2017-10-11T22:59:13.060Z,92.80
2017-10-11T23:01:40.858Z,92.80
2017-10-11T23:04:08.702Z,93.00
2017-10-11T23:06:36.470Z,93.30
2017-10-11T23:09:04.329Z,93.70
2017-10-11T23:11:32.926Z,94.00
2017-10-11T23:14:00.754Z,94.30
2017-10-11T23:16:28.538Z,94.50
2017-10-11T23:18:56.262Z,94.90
2017-10-11T23:21:24.079Z,95.20
2017-10-11T23:23:51.829Z,95.60
2017-10-11T23:26:19.566Z,95.50
2017-10-11T23:28:47.314Z,95.20
2017-10-11T23:31:15.914Z,95.20
2017-10-11T23:33:44.704Z,95.30
2017-10-11T23:36:12.506Z,95.20
2017-10-11T23:38:40.268Z,95.00
2017-10-11T23:41:08.200Z,94.70
2017-10-11T23:43:35.938Z,94.70
2017-10-11T23:46:04.431Z,94.80
2017-10-11T23:48:32.153Z,94.80
2017-10-11T23:50:59.993Z,94.90
2017-10-11T23:53:27.726Z,94.80
2017-10-11T23:55:55.472Z,95.20
2017-10-11T23:58:23.973Z,95.60
